createdAt,value
2023-03-28T00:01:41.644Z,100
2023-03-28T00:04:07.454Z,100
2023-03-28T00:06:33.577Z,100
2023-03-28T00:08:59.638Z,100
2023-03-28T00:11:25.764Z,100
2023-03-28T00:13:51.849Z,100
2023-03-28T00:16:16.962Z,100
2023-03-28T00:18:43.049Z,100
2023-03-28T00:21:09.146Z,100
2023-03-28T00:23:35.236Z,100
2023-03-28T00:26:01.349Z,100
2023-03-28T00:28:27.444Z,99.7
2023-03-28T00:30:53.532Z,99.7
2023-03-28T00:33:19.632Z,99.8
2023-03-28T00:35:45.734Z,99.6
2023-03-28T00:38:11.836Z,99.7
2023-03-28T00:40:37.928Z,99.7
2023-03-28T00:43:04.027Z,99.9
2023-03-28T00:45:30.121Z,99.8
2023-03-28T00:47:55.236Z,99.9
2023-03-28T00:50:21.320Z,100
2023-03-28T00:52:47.432Z,100
2023-03-28T00:55:13.531Z,100
2023-03-28T00:57:39.627Z,100
2023-03-28T01:00:05.717Z,100
2023-03-28T01:02:31.800Z,100
2023-03-28T01:04:57.904Z,100
2023-03-28T01:07:24.017Z,100
2023-03-28T01:09:50.094Z,100
2023-03-28T01:12:16.194Z,100
2023-03-28T01:14:42.304Z,100
2023-03-28T01:17:08.386Z,100
2023-03-28T01:19:33.554Z,100
2023-03-28T01:21:59.597Z,100
2023-03-28T01:24:25.691Z,100
2023-03-28T01:26:51.788Z,100
2023-03-28T01:29:17.913Z,100
2023-03-28T01:31:43.991Z,100
2023-03-28T01:34:10.092Z,100
2023-03-28T01:36:36.178Z,100
2023-03-28T01:39:02.313Z,100
2023-03-28T01:41:28.385Z,100
2023-03-28T01:43:54.498Z,100
2023-03-28T01:46:20.583Z,100
2023-03-28T01:48:46.676Z,100
2023-03-28T01:51:11.773Z,100
2023-03-28T01:53:37.882Z,100
2023-03-28T01:56:03.964Z,100
2023-03-28T01:58:30.096Z,100
2023-03-28T02:00:56.177Z,100
2023-03-28T02:03:22.272Z,100
2023-03-28T02:05:48.375Z,100
2023-03-28T02:08:14.462Z,100
2023-03-28T02:10:40.551Z,100
2023-03-28T02:13:06.652Z,100
2023-03-28T02:15:32.758Z,100
2023-03-28T02:17:58.846Z,100
2023-03-28T02:20:24.940Z,100
2023-03-28T02:22:50.062Z,100
2023-03-28T02:25:16.190Z,100
2023-03-28T02:27:42.272Z,100
2023-03-28T02:30:08.359Z,100
2023-03-28T02:32:34.461Z,100
2023-03-28T02:35:00.567Z,100
2023-03-28T02:37:26.649Z,100
2023-03-28T02:39:52.745Z,100
2023-03-28T02:42:18.852Z,100
2023-03-28T02:44:44.942Z,100
2023-03-28T02:47:11.057Z,100
2023-03-28T02:49:37.134Z,100
2023-03-28T02:52:03.242Z,100
2023-03-28T02:54:28.338Z,100
2023-03-28T02:56:54.449Z,100
2023-03-28T02:59:20.541Z,100
2023-03-28T03:01:46.639Z,100
2023-03-28T03:04:12.748Z,100
2023-03-28T03:06:38.833Z,100
2023-03-28T03:09:05.075Z,100
2023-03-28T03:11:31.034Z,100
2023-03-28T03:13:57.120Z,100
2023-03-28T03:16:23.214Z,100
2023-03-28T03:18:49.322Z,100
2023-03-28T03:21:15.431Z,100
2023-03-28T03:23:41.521Z,100
2023-03-28T03:26:06.641Z,100
2023-03-28T03:28:32.739Z,100
2023-03-28T03:30:58.828Z,100
2023-03-28T03:33:24.918Z,100
2023-03-28T03:35:51.025Z,100
2023-03-28T03:38:17.115Z,100
2023-03-28T03:40:43.231Z,100
2023-03-28T03:43:09.305Z,100
2023-03-28T03:45:35.419Z,100
2023-03-28T03:48:01.517Z,100
2023-03-28T03:50:27.595Z,100
2023-03-28T03:52:53.685Z,100
2023-03-28T03:55:19.790Z,100
2023-03-28T03:57:44.897Z,100
2023-03-28T04:00:10.998Z,100
2023-03-28T04:02:37.128Z,100
2023-03-28T04:05:03.287Z,100
2023-03-28T04:07:29.286Z,100
2023-03-28T04:09:55.409Z,100
2023-03-28T04:12:21.558Z,100
2023-03-28T04:14:47.628Z,100
2023-03-28T04:17:13.678Z,100
2023-03-28T04:19:39.774Z,100
2023-03-28T04:22:05.940Z,100
2023-03-28T04:24:32.085Z,100
2023-03-28T04:26:58.090Z,100
2023-03-28T04:29:23.235Z,100
2023-03-28T04:31:49.293Z,100
2023-03-28T04:34:15.393Z,100
2023-03-28T04:36:41.520Z,100
2023-03-28T04:39:07.571Z,100
2023-03-28T04:41:33.777Z,100
2023-03-28T04:43:59.757Z,100
2023-03-28T04:46:25.870Z,100
2023-03-28T04:48:51.976Z,100
2023-03-28T04:51:18.056Z,100
2023-03-28T04:53:44.155Z,100
2023-03-28T04:56:10.261Z,100
2023-03-28T04:58:36.368Z,100
2023-03-28T05:01:01.450Z,100
2023-03-28T05:03:27.559Z,100
2023-03-28T05:05:53.670Z,100
2023-03-28T05:08:19.745Z,100
2023-03-28T05:10:45.854Z,100
2023-03-28T05:13:11.950Z,100
2023-03-28T05:15:38.046Z,100
2023-03-28T05:18:04.137Z,100
2023-03-28T05:20:30.251Z,100
2023-03-28T05:22:56.346Z,100
2023-03-28T05:25:22.433Z,100
2023-03-28T05:27:48.526Z,100
2023-03-28T05:30:14.627Z,100
2023-03-28T05:32:39.738Z,100
2023-03-28T05:35:05.832Z,100
2023-03-28T05:37:31.939Z,100
2023-03-28T05:39:58.045Z,100
2023-03-28T05:42:24.137Z,100
2023-03-28T05:44:50.272Z,100
2023-03-28T05:47:15.352Z,100
2023-03-28T05:49:41.438Z,100
2023-03-28T05:52:07.536Z,100
2023-03-28T05:54:33.634Z,100
2023-03-28T05:56:59.764Z,100
2023-03-28T05:59:25.819Z,100
2023-03-28T06:01:51.939Z,100
2023-03-28T06:04:18.032Z,100
2023-03-28T06:06:44.135Z,100
2023-03-28T06:09:10.222Z,100
2023-03-28T06:11:36.343Z,100
2023-03-28T06:14:02.439Z,100
2023-03-28T06:16:28.507Z,100
2023-03-28T06:18:53.750Z,100
2023-03-28T06:21:19.772Z,100
2023-03-28T06:23:45.897Z,100
2023-03-28T06:26:11.930Z,100
2023-03-28T06:28:38.028Z,100
2023-03-28T06:31:04.174Z,100
2023-03-28T06:33:30.197Z,100
2023-03-28T06:35:56.295Z,100
2023-03-28T06:38:22.405Z,100
2023-03-28T06:40:48.504Z,100
2023-03-28T06:43:14.608Z,100
2023-03-28T06:45:40.712Z,100
2023-03-28T06:48:06.789Z,100
2023-03-28T06:50:31.897Z,99.6
2023-03-28T06:52:58.040Z,99.3
2023-03-28T06:55:24.110Z,99
2023-03-28T06:57:50.188Z,99
2023-03-28T07:00:34.848Z,98.8
2023-03-28T07:02:42.475Z,98.8
2023-03-28T07:05:08.489Z,98.7
2023-03-28T07:07:34.579Z,98.5
2023-03-28T07:10:00.720Z,98.5
2023-03-28T07:12:26.769Z,98.3
2023-03-28T07:14:52.868Z,97.6
2023-03-28T07:17:18.975Z,97
2023-03-28T07:19:45.089Z,96.5
2023-03-28T07:22:10.178Z,94.7
2023-03-28T07:24:36.311Z,94.2
2023-03-28T07:27:02.387Z,93.2
2023-03-28T07:29:28.475Z,92.3
2023-03-28T07:31:54.589Z,91.8
2023-03-28T07:34:20.689Z,91.6
2023-03-28T07:36:46.761Z,91.5
2023-03-28T07:39:12.856Z,90.8
2023-03-28T07:41:38.981Z,89.7
2023-03-28T07:44:05.142Z,90.4
2023-03-28T07:46:31.197Z,88.8
2023-03-28T07:48:57.261Z,88.1
2023-03-28T07:51:23.382Z,85.9
2023-03-28T07:53:48.492Z,85.2
2023-03-28T07:56:14.592Z,84.5
2023-03-28T07:58:40.721Z,84
2023-03-28T08:01:06.780Z,83.5
2023-03-28T08:03:32.871Z,82.6
2023-03-28T08:05:58.973Z,82.8
2023-03-28T08:08:25.077Z,82.1
2023-03-28T08:10:51.151Z,82
2023-03-28T08:13:17.289Z,80.9
2023-03-28T08:15:43.466Z,80.3
2023-03-28T08:18:09.424Z,80.8
2023-03-28T08:20:35.525Z,80.6
2023-03-28T08:23:01.641Z,80.1
2023-03-28T08:25:27.861Z,78.5
2023-03-28T08:27:53.974Z,78.2
2023-03-28T08:30:20.049Z,79.5
2023-03-28T08:32:46.152Z,78.4
2023-03-28T08:35:12.236Z,77.9
2023-03-28T08:37:38.328Z,77.6
2023-03-28T08:40:04.447Z,78
2023-03-28T08:42:30.518Z,78.9
2023-03-28T08:44:56.622Z,76.9
2023-03-28T08:47:22.714Z,76.3
2023-03-28T08:49:48.801Z,75.9
2023-03-28T08:52:14.892Z,75.9
2023-03-28T08:54:41.014Z,76.5
2023-03-28T08:57:06.122Z,76.1
2023-03-28T08:59:32.219Z,76.4
2023-03-28T09:01:58.321Z,76.8
2023-03-28T09:04:24.397Z,75.2
2023-03-28T09:06:50.498Z,73.7
2023-03-28T09:09:16.649Z,73.8
2023-03-28T09:11:42.693Z,75.2
2023-03-28T09:14:08.825Z,72
2023-03-28T09:16:34.907Z,72.8
2023-03-28T09:19:00.988Z,72.1
2023-03-28T09:21:27.101Z,71.2
2023-03-28T09:23:53.176Z,72.3
2023-03-28T09:26:19.279Z,72.1
2023-03-28T09:28:44.401Z,69.4
2023-03-28T09:31:10.480Z,70.7
2023-03-28T09:33:36.599Z,70.2
2023-03-28T09:36:02.681Z,70
2023-03-28T09:38:28.810Z,69.2
2023-03-28T09:40:54.915Z,67.7
2023-03-28T09:43:20.985Z,68.5
2023-03-28T09:45:47.064Z,67.1
2023-03-28T09:48:13.148Z,66.9
2023-03-28T09:50:39.263Z,67.7
2023-03-28T09:53:05.333Z,67
2023-03-28T09:55:31.461Z,67
2023-03-28T09:57:57.533Z,65
2023-03-28T10:00:22.646Z,64.2
2023-03-28T10:02:48.812Z,64.3
2023-03-28T10:05:14.841Z,66.1
2023-03-28T10:07:40.959Z,65.5
2023-03-28T10:10:07.030Z,65.8
2023-03-28T10:12:33.140Z,65.8
2023-03-28T10:14:59.229Z,63.8
2023-03-28T10:17:25.315Z,63.9
2023-03-28T10:19:51.437Z,63.8
2023-03-28T10:22:17.518Z,65.3
2023-03-28T10:24:43.661Z,63.7
2023-03-28T10:27:09.688Z,63.6
2023-03-28T10:29:35.817Z,64
2023-03-28T10:32:00.893Z,65.6
2023-03-28T10:34:26.997Z,61.1
2023-03-28T10:36:53.084Z,59.5
2023-03-28T10:39:19.189Z,59.9
2023-03-28T10:41:45.294Z,59.5
2023-03-28T10:44:11.383Z,60.2
2023-03-28T10:46:37.477Z,60.2
2023-03-28T10:49:03.578Z,59.3
2023-03-28T10:51:29.697Z,58.5
2023-03-28T10:53:55.767Z,60.6
2023-03-28T10:56:21.867Z,60.8
2023-03-28T10:58:48.050Z,59
2023-03-28T11:01:14.051Z,59.9
2023-03-28T11:03:39.241Z,58.9
2023-03-28T11:06:05.317Z,56.6
2023-03-28T11:08:31.346Z,57.7
2023-03-28T11:10:57.610Z,59.2
2023-03-28T11:13:23.631Z,59.1
2023-03-28T11:15:49.721Z,60
2023-03-28T11:18:15.753Z,57.8
2023-03-28T11:20:41.843Z,59
2023-03-28T11:23:07.951Z,58.4
2023-03-28T11:25:34.155Z,56.2
2023-03-28T11:28:00.160Z,56.9
2023-03-28T11:30:26.230Z,56.7
2023-03-28T11:32:52.331Z,58.4
2023-03-28T11:35:17.473Z,56.4
2023-03-28T11:37:43.563Z,56.7
2023-03-28T11:40:09.612Z,56.5
2023-03-28T11:42:35.789Z,56.1
2023-03-28T11:45:01.814Z,56.6
2023-03-28T11:47:27.930Z,55
2023-03-28T11:49:54.019Z,55.1
2023-03-28T11:52:20.098Z,55.8
2023-03-28T11:54:46.242Z,54.5
2023-03-28T11:57:12.304Z,56
2023-03-28T11:59:38.398Z,55.4
2023-03-28T12:02:04.483Z,55.5
2023-03-28T12:04:30.576Z,54.8
2023-03-28T12:06:55.688Z,53.7
2023-03-28T12:09:21.816Z,53.8
2023-03-28T12:11:47.887Z,55.3
2023-03-28T12:14:13.976Z,52.9
2023-03-28T12:16:40.065Z,53.4
2023-03-28T12:19:06.160Z,53.7
2023-03-28T12:21:32.290Z,54
2023-03-28T12:23:58.394Z,54
2023-03-28T12:26:24.450Z,52.9
2023-03-28T12:28:50.555Z,54.9
2023-03-28T12:31:16.665Z,53.3
2023-03-28T12:33:42.746Z,54
2023-03-28T12:36:08.828Z,52.6
2023-03-28T12:38:33.988Z,53.1
2023-03-28T12:41:00.043Z,52.3
2023-03-28T12:43:26.152Z,52.3
2023-03-28T12:45:52.225Z,51.6
2023-03-28T12:48:18.350Z,50
2023-03-28T12:50:44.419Z,49
2023-03-28T12:53:10.522Z,48.2
2023-03-28T12:55:36.607Z,49.1
2023-03-28T12:58:02.730Z,50.5
2023-03-28T13:00:28.816Z,48.8
2023-03-28T13:02:54.900Z,48.9
2023-03-28T13:05:21.012Z,48.8
2023-03-28T13:07:47.101Z,49.6
2023-03-28T13:10:12.210Z,49.7
2023-03-28T13:12:38.315Z,51.1
2023-03-28T13:15:04.398Z,49.7
2023-03-28T13:17:30.515Z,50.8
2023-03-28T13:19:56.608Z,48.2
2023-03-28T13:22:22.687Z,51.4
2023-03-28T13:24:48.797Z,51.2
2023-03-28T13:27:18.090Z,49.3
2023-03-28T13:29:40.983Z,49.3
2023-03-28T13:32:07.078Z,47.8
2023-03-28T13:34:33.152Z,48.4
2023-03-28T13:36:59.265Z,47.2
2023-03-28T13:39:25.350Z,47.1
2023-03-28T13:41:50.497Z,47.1
2023-03-28T13:44:16.574Z,47.4
2023-03-28T13:46:42.653Z,48.3
2023-03-28T13:49:08.759Z,46.4
2023-03-28T13:51:34.843Z,45.6
2023-03-28T13:54:00.940Z,46.3
2023-03-28T13:56:26.058Z,46.8
2023-03-28T13:58:52.154Z,45.1
2023-03-28T14:01:18.247Z,44.9
2023-03-28T14:03:44.355Z,44.2
2023-03-28T14:06:10.450Z,45.1
2023-03-28T14:08:36.540Z,45.4
2023-03-28T14:13:28.737Z,45.9
2023-03-28T14:15:54.824Z,44.4
2023-03-28T14:18:20.921Z,43.1
2023-03-28T14:20:47.046Z,41.4
2023-03-28T14:23:13.119Z,41.7
2023-03-28T14:25:39.219Z,41.9
2023-03-28T14:28:04.376Z,39.1
2023-03-28T14:30:30.430Z,40.7
2023-03-28T14:32:56.621Z,41.4
2023-03-28T14:35:22.703Z,40.8
2023-03-28T14:37:48.705Z,38.1
2023-03-28T14:40:14.800Z,38.9
2023-03-28T14:42:40.900Z,38.9
2023-03-28T14:45:07.017Z,38.1
2023-03-28T14:47:33.108Z,38.5
2023-03-28T14:49:59.217Z,38.5
2023-03-28T14:52:25.283Z,37.1
2023-03-28T14:54:51.393Z,37.3
2023-03-28T14:57:17.465Z,36.5
2023-03-28T14:59:42.574Z,34.7
2023-03-28T15:02:08.672Z,36.1
2023-03-28T15:04:34.775Z,37.3
2023-03-28T15:07:00.860Z,37.1
2023-03-28T15:09:26.967Z,37.1
2023-03-28T15:11:53.058Z,39.9
2023-03-28T15:14:19.163Z,39
2023-03-28T15:16:45.267Z,40
2023-03-28T15:19:11.343Z,39.8
2023-03-28T15:21:37.447Z,40.8
2023-03-28T15:24:03.683Z,39.7
2023-03-28T15:26:29.625Z,39.3
2023-03-28T15:28:55.718Z,38.8
2023-03-28T15:31:20.917Z,38.1
2023-03-28T15:33:46.914Z,38.9
2023-03-28T15:36:13.020Z,40
2023-03-28T15:38:39.113Z,38.4
2023-03-28T15:41:05.218Z,37.1
2023-03-28T15:43:31.306Z,38.8
2023-03-28T15:45:57.412Z,39.2
2023-03-28T15:48:23.495Z,37.4
2023-03-28T15:50:49.588Z,39
2023-03-28T15:53:15.695Z,40.8
2023-03-28T15:55:41.793Z,41.2
2023-03-28T15:58:07.879Z,41.5
2023-03-28T16:03:00.082Z,38.9
2023-03-28T16:05:25.181Z,39.3
2023-03-28T16:07:51.282Z,37.7
2023-03-28T16:10:17.405Z,38
2023-03-28T16:12:43.471Z,37.1
2023-03-28T16:15:09.557Z,40
2023-03-28T16:17:35.663Z,38.1
2023-03-28T16:20:01.767Z,39.5
2023-03-28T16:22:27.849Z,39.6
2023-03-28T16:24:53.950Z,36.8
2023-03-28T16:27:20.033Z,37.1
2023-03-28T16:29:46.126Z,35.9
2023-03-28T16:32:12.213Z,38.2
2023-03-28T16:34:38.325Z,40
2023-03-28T16:37:03.418Z,40.4
2023-03-28T16:39:29.515Z,41.1
2023-03-28T16:41:55.623Z,43.1
2023-03-28T16:44:21.700Z,43.9
2023-03-28T16:46:47.804Z,44.1
2023-03-28T16:49:13.895Z,49.3
2023-03-28T16:51:40.000Z,53.3
2023-03-28T16:54:06.115Z,54
2023-03-28T16:56:32.179Z,55.9
2023-03-28T16:58:58.305Z,57.5
2023-03-28T17:01:24.374Z,59.5
2023-03-28T17:03:50.464Z,60.1
2023-03-28T17:06:16.582Z,63.3
2023-03-28T17:08:41.683Z,64.6
2023-03-28T17:11:07.782Z,64.8
2023-03-28T17:13:33.877Z,65.7
2023-03-28T17:15:59.993Z,66.4
2023-03-28T17:18:26.072Z,66.1
2023-03-28T17:20:52.157Z,67.8
2023-03-28T17:23:18.248Z,68
2023-03-28T17:25:44.336Z,68.4
2023-03-28T17:28:10.445Z,69
2023-03-28T17:30:36.540Z,70.6
2023-03-28T17:33:02.644Z,70.5
2023-03-28T17:35:28.738Z,71.5
2023-03-28T17:37:54.816Z,71.3
2023-03-28T17:40:19.964Z,69.3
2023-03-28T17:42:46.022Z,70.8
2023-03-28T17:45:12.125Z,70
2023-03-28T17:47:38.224Z,71
2023-03-28T17:50:04.306Z,70.8
2023-03-28T17:52:30.414Z,71.3
2023-03-28T17:54:56.499Z,71.9
2023-03-28T17:57:22.593Z,73.5
2023-03-28T17:59:48.702Z,73.4
2023-03-28T18:02:14.803Z,73.5
2023-03-28T18:04:40.883Z,74
2023-03-28T18:07:06.984Z,74.9
2023-03-28T18:09:33.084Z,74
2023-03-28T18:11:58.188Z,73.7
2023-03-28T18:14:24.280Z,73.7
2023-03-28T18:16:50.390Z,75
2023-03-28T18:19:16.468Z,75.2
2023-03-28T18:21:42.609Z,75.3
2023-03-28T18:24:08.691Z,75.7
2023-03-28T18:26:34.762Z,75.9
2023-03-28T18:29:00.856Z,76
2023-03-28T18:31:26.961Z,76.4
2023-03-28T18:33:53.057Z,76.2
2023-03-28T18:36:19.162Z,77
2023-03-28T18:38:45.244Z,77.8
2023-03-28T18:41:11.339Z,77.9
2023-03-28T18:43:36.457Z,78.9
2023-03-28T18:46:02.559Z,78.1
2023-03-28T18:48:28.661Z,79
2023-03-28T18:50:54.736Z,78.9
2023-03-28T18:53:20.848Z,78.3
2023-03-28T18:55:46.920Z,77.6
2023-03-28T18:58:13.032Z,77.5
2023-03-28T19:00:39.203Z,77.7
2023-03-28T19:03:05.214Z,77.9
2023-03-28T19:05:31.324Z,78.4
2023-03-28T19:07:57.402Z,78.8
2023-03-28T19:10:23.552Z,78.5
2023-03-28T19:12:49.598Z,79.3
2023-03-28T19:15:14.714Z,80
2023-03-28T19:17:40.797Z,80.6
2023-03-28T19:20:06.907Z,79.7
2023-03-28T19:22:33.019Z,80
2023-03-28T19:24:59.080Z,80.1
2023-03-28T19:27:25.187Z,80.2
2023-03-28T19:29:51.291Z,80.3
2023-03-28T19:32:17.410Z,81.3
2023-03-28T19:34:43.464Z,81.8
2023-03-28T19:37:09.577Z,82
2023-03-28T19:39:35.652Z,82.7
2023-03-28T19:42:01.760Z,82.4
2023-03-28T19:44:27.853Z,82.3
2023-03-28T19:46:52.973Z,82.7
2023-03-28T19:49:19.066Z,82.4
2023-03-28T19:51:45.146Z,82.5
2023-03-28T19:54:11.244Z,82.6
2023-03-28T19:56:37.375Z,83
2023-03-28T19:59:03.532Z,83.1
2023-03-28T20:01:29.550Z,82.8
2023-03-28T20:03:55.671Z,82.6
2023-03-28T20:06:21.733Z,83
2023-03-28T20:08:47.814Z,83.5
2023-03-28T20:11:13.929Z,83.7
2023-03-28T20:13:40.015Z,83.6
2023-03-28T20:16:06.115Z,82.9
2023-03-28T20:18:31.222Z,81
2023-03-28T20:20:57.305Z,81.8
2023-03-28T20:23:23.413Z,80.3
2023-03-28T20:25:49.509Z,79.7
2023-03-28T20:28:15.605Z,79.8
2023-03-28T20:30:41.704Z,80.8
2023-03-28T20:33:07.788Z,80.6
2023-03-28T20:35:33.888Z,80.6
2023-03-28T20:37:59.991Z,81.3
2023-03-28T20:40:26.082Z,80.4
2023-03-28T20:42:52.159Z,79.5
2023-03-28T20:45:18.279Z,80.3
2023-03-28T20:47:44.369Z,80.2
2023-03-28T20:50:09.489Z,80.4
2023-03-28T20:52:35.607Z,80.6
2023-03-28T20:55:01.665Z,80.6
2023-03-28T20:57:27.784Z,80.8
2023-03-28T20:59:53.861Z,81.3
2023-03-28T21:02:19.959Z,82.2
2023-03-28T21:04:46.097Z,81.8
2023-03-28T21:07:12.140Z,81.3
2023-03-28T21:09:38.241Z,81.4
2023-03-28T21:12:04.343Z,81.3
2023-03-28T21:14:30.441Z,81.8
2023-03-28T21:16:56.521Z,82.3
2023-03-28T21:19:22.617Z,81.3
2023-03-28T21:21:47.740Z,81.7
2023-03-28T21:24:13.820Z,82
2023-03-28T21:26:39.922Z,81.7
2023-03-28T21:29:06.032Z,80.7
2023-03-28T21:31:32.135Z,80.2
2023-03-28T21:33:58.222Z,79.8
2023-03-28T21:36:24.307Z,80
2023-03-28T21:41:16.522Z,83
2023-03-28T21:43:42.603Z,83.9
2023-03-28T21:46:08.690Z,82.3
2023-03-28T21:48:34.794Z,81.1
2023-03-28T21:51:00.883Z,79.8
2023-03-28T21:53:26.008Z,80
2023-03-28T21:55:52.132Z,80.1
2023-03-28T21:58:18.192Z,79.7
2023-03-28T22:00:44.297Z,79.9
2023-03-28T22:03:10.380Z,80
2023-03-28T22:05:35.506Z,79.7
2023-03-28T22:08:01.595Z,79.1
2023-03-28T22:10:27.689Z,79
2023-03-28T22:12:53.798Z,78.9
2023-03-28T22:15:19.882Z,76.6
2023-03-28T22:17:45.992Z,77.5
2023-03-28T22:20:12.095Z,77.6
2023-03-28T22:22:38.177Z,79.2
2023-03-28T22:25:04.285Z,80
2023-03-28T22:27:30.381Z,80.7
2023-03-28T22:29:56.468Z,83
2023-03-28T22:32:22.555Z,83.4
2023-03-28T22:34:48.665Z,82.6
2023-03-28T22:37:13.781Z,82.7
2023-03-28T22:39:39.912Z,80.3
2023-03-28T22:42:05.974Z,79.9
2023-03-28T22:44:32.050Z,79.3
2023-03-28T22:46:58.143Z,80
2023-03-28T22:49:24.246Z,81.7
2023-03-28T22:51:50.348Z,80.8
2023-03-28T22:54:16.434Z,81.8
2023-03-28T22:56:42.542Z,82
2023-03-28T22:59:08.639Z,80.7
2023-03-28T23:01:34.746Z,80
2023-03-28T23:04:00.817Z,78.3
2023-03-28T23:06:26.928Z,76.6
2023-03-28T23:08:52.030Z,75.8
2023-03-28T23:11:18.125Z,72.4
2023-03-28T23:13:44.206Z,70.9
2023-03-28T23:16:10.310Z,70
2023-03-28T23:18:36.397Z,70.5
2023-03-28T23:21:02.517Z,69.6
2023-03-28T23:23:28.611Z,71.1
2023-03-28T23:25:54.758Z,72.3
2023-03-28T23:28:20.866Z,73
2023-03-28T23:30:46.889Z,74.7
2023-03-28T23:33:12.987Z,75.9
2023-03-28T23:35:39.072Z,76.9
2023-03-28T23:38:05.167Z,78.5
2023-03-28T23:40:30.279Z,81.1
2023-03-28T23:42:56.431Z,82.6
2023-03-28T23:45:22.471Z,84.7
2023-03-28T23:47:48.568Z,85.5
2023-03-28T23:50:14.652Z,87.5
2023-03-28T23:52:40.750Z,89.3
2023-03-28T23:55:06.865Z,91.5
2023-03-28T23:57:33.034Z,92.5
2023-03-28T23:59:59.106Z,93.2
